Time;durP1;ratioP1;P1;durP2;ratioP2;P2;SDS_P1;SDS_P2;PMS_P1;PMS_P2;Temp;Humidity;BMP_temperature;BMP_pressure;BME280_temperature;BME280_humidity;BME280_pressure;Samples;Min_cycle;Max_cycle;Signal;HPM_P1;HPM_P2
2021/05/09 00:01:36;;;;;;;2.30;1.30;;;;;;;13.82;73.09;98746.78;6137602;23;20012;-74
2021/05/09 00:04:02;;;;;;;6.82;1.77;;;;;;;13.81;73.02;98736.91;6186376;23;20004;-75
2021/05/09 00:06:28;;;;;;;4.32;1.98;;;;;;;13.82;72.93;98730.31;6185769;23;20316;-75
2021/05/09 00:08:53;;;;;;;4.78;1.58;;;;;;;13.78;72.68;98725.47;6187295;23;20474;-76
2021/05/09 00:11:19;;;;;;;7.97;2.00;;;;;;;13.74;73.27;98721.75;6113021;23;20013;-75
2021/05/09 00:13:45;;;;;;;1.92;1.35;;;;;;;13.75;72.84;98723.34;6186908;23;20015;-76
2021/05/09 00:16:11;;;;;;;5.90;0.68;;;;;;;13.76;72.65;98713.97;6182500;23;20013;-73
2021/05/09 00:18:37;;;;;;;5.60;1.70;;;;;;;13.72;72.88;98704.78;6187164;23;20009;-73
2021/05/09 00:21:03;;;;;;;17.05;1.20;;;;;;;13.82;73.05;98713.81;6131894;23;20490;-74
2021/05/09 00:23:28;;;;;;;5.70;1.35;;;;;;;13.82;73.14;98705.56;6162664;23;20009;-75
2021/05/09 00:25:54;;;;;;;5.05;1.65;;;;;;;13.83;72.83;98709.91;6159699;23;20340;-74
2021/05/09 00:28:19;;;;;;;4.07;1.85;;;;;;;13.81;73.52;98703.97;6190749;23;20005;-76
2021/05/09 00:30:50;;;;;;;3.10;1.08;;;;;;;13.83;73.50;98704.41;6186648;23;20013;-76
2021/05/09 00:33:18;;;;;;;3.63;1.42;;;;;;;13.68;73.95;98683.81;6141367;23;20020;-76
2021/05/09 00:35:43;;;;;;;3.65;1.17;;;;;;;13.55;75.61;98688.38;6161673;23;20057;-76
2021/05/09 00:38:09;;;;;;;9.15;1.70;;;;;;;13.48;76.54;98704.53;6187350;23;20691;-74
2021/05/09 00:40:34;;;;;;;6.68;1.40;;;;;;;13.37;77.08;98696.66;6136923;23;20364;-75
2021/05/09 00:43:00;;;;;;;12.27;1.25;;;;;;;13.30;77.93;98682.59;6105101;23;20092;-76
2021/05/09 00:45:25;;;;;;;5.40;1.10;;;;;;;13.23;78.53;98698.78;6189751;23;20480;-75
2021/05/09 00:47:54;;;;;;;7.35;1.48;;;;;;;13.10;78.89;98690.38;6188865;23;20409;-76
2021/05/09 00:50:28;;;;;;;3.35;1.90;;;;;;;12.96;79.27;98673.28;6182050;23;20356;-76
2021/05/09 00:52:57;;;;;;;7.28;2.08;;;;;;;12.97;79.22;98674.91;6157886;23;20005;-75
2021/05/09 00:55:23;;;;;;;5.15;1.92;;;;;;;13.00;79.55;98673.47;6191137;23;20001;-75
2021/05/09 00:57:56;;;;;;;7.50;1.75;;;;;;;12.87;79.28;98656.84;6172402;23;20019;-77
2021/05/09 01:00:22;;;;;;;4.32;1.67;;;;;;;12.94;80.00;98659.09;6172660;23;20039;-75
2021/05/09 01:02:52;;;;;;;7.13;1.13;;;;;;;12.87;79.80;98643.13;6162461;23;20033;-78
2021/05/09 01:05:18;;;;;;;6.43;1.92;;;;;;;12.94;79.47;98650.88;6138089;23;20005;-77
2021/05/09 01:07:46;;;;;;;4.32;1.55;;;;;;;12.95;79.35;98643.44;6167186;23;20035;-75
2021/05/09 01:10:15;;;;;;;4.50;1.67;;;;;;;12.96;79.63;98645.84;6162551;23;20023;-76
2021/05/09 01:12:41;;;;;;;4.72;1.60;;;;;;;12.95;79.03;98646.97;6136867;23;20009;-76
2021/05/09 01:15:08;;;;;;;3.55;1.50;;;;;;;12.96;78.99;98648.59;6161899;23;20012;-75
2021/05/09 01:17:36;;;;;;;4.72;1.60;;;;;;;13.00;79.51;98646.03;6185579;23;20312;-75
2021/05/09 01:20:09;;;;;;;4.78;1.27;;;;;;;13.01;78.89;98640.22;6133402;23;20009;-76
2021/05/09 01:22:45;;;;;;;6.85;1.80;;;;;;;13.03;78.54;98629.72;6179357;23;20019;-74
2021/05/09 01:25:13;;;;;;;7.38;2.00;;;;;;;13.05;78.30;98619.22;6159544;23;20428;-75
2021/05/09 01:27:39;;;;;;;7.18;1.98;;;;;;;13.09;78.47;98633.09;6160061;23;20424;-76
2021/05/09 01:30:07;;;;;;;5.63;1.67;;;;;;;13.09;78.44;98628.41;6158698;23;20061;-76
2021/05/09 01:32:33;;;;;;;8.95;2.03;;;;;;;13.01;78.43;98626.50;6179320;23;20017;-75
2021/05/09 01:34:58;;;;;;;6.25;1.95;;;;;;;12.94;78.54;98609.72;6186736;23;20001;-77
2021/05/09 01:37:24;;;;;;;7.75;2.25;;;;;;;12.90;78.69;98615.03;6186963;23;20005;-76
2021/05/09 01:39:49;;;;;;;5.55;1.65;;;;;;;13.00;79.32;98624.88;6162885;23;20062;-77
2021/05/09 01:42:15;;;;;;;2.80;1.60;;;;;;;13.00;79.50;98630.38;6163534;23;20008;-77
2021/05/09 01:44:57;;;;;;;7.43;1.77;;;;;;;12.91;79.33;98604.91;6137075;23;20064;-78
2021/05/09 01:47:23;;;;;;;6.55;2.33;;;;;;;12.96;79.16;98618.41;6163017;23;20115;-77
2021/05/09 01:49:58;;;;;;;13.48;2.05;;;;;;;12.99;78.63;98615.03;6157717;23;20005;-78
2021/05/09 01:52:45;;;;;;;7.05;1.88;;;;;;;13.03;78.78;98604.22;6163333;23;20015;-78
2021/05/09 01:55:21;;;;;;;7.70;2.30;;;;;;;12.91;79.24;98604.91;6161381;23;20028;-77
2021/05/09 01:57:47;;;;;;;10.88;1.67;;;;;;;12.87;78.92;98592.97;6189398;23;20087;-76
2021/05/09 02:00:17;;;;;;;4.07;1.73;;;;;;;12.91;79.06;98596.66;6161474;23;20033;-79
2021/05/09 02:02:52;;;;;;;5.22;1.80;;;;;;;12.80;79.41;98576.97;6189090;23;20008;-78
2021/05/09 02:05:31;;;;;;;3.28;2.00;;;;;;;12.83;80.18;98594.72;6163174;23;20081;-80
2021/05/09 02:08:28;;;;;;;;;;;;;;;;;;;;;
2021/05/09 02:11:06;;;;;;;;;;;;;;;;;;;;;
2021/05/09 02:13:44;;;;;;;7.55;2.22;;;;;;;12.75;81.12;98602.66;6189146;23;19928;-79
2021/05/09 02:16:31;;;;;;;5.32;2.38;;;;;;;12.56;80.82;98574.78;6161664;23;20063;-79
2021/05/09 02:26:07;;;;;;;7.93;2.22;;;;;;;12.58;81.35;98564.28;5978460;23;20017;-78
2021/05/09 02:28:33;;;;;;;7.65;2.15;;;;;;;12.52;81.47;98565.59;6052777;23;20033;-77
2021/05/09 02:31:27;;;;;;;8.48;2.28;;;;;;;12.61;81.50;98569.13;6057200;23;20023;-76
2021/05/09 02:34:02;;;;;;;5.80;1.65;;;;;;;12.55;81.41;98554.75;6129620;23;20008;-76
2021/05/09 02:36:37;;;;;;;7.18;2.15;;;;;;;12.66;80.93;98582.66;6192650;23;20005;-77
2021/05/09 02:39:18;;;;;;;;;;;;;;;;;;;;;
2021/05/09 02:41:46;;;;;;;7.68;2.20;;;;;;;12.53;80.98;98551.56;6191000;23;20020;-77
2021/05/09 02:44:14;;;;;;;3.60;1.85;;;;;;;12.57;80.91;98551.69;6159441;23;20012;-77
2021/05/09 02:46:42;;;;;;;9.00;1.90;;;;;;;12.64;80.50;98562.19;6184574;23;20004;-78
2021/05/09 02:49:18;;;;;;;;;;;;;;;;;;;;;
2021/05/09 02:51:54;;;;;;;;;;;;;;;;;;;;;
2021/05/09 02:54:27;;;;;;;11.85;2.15;;;;;;;12.68;80.14;98558.47;6190047;23;20072;-77
2021/05/09 02:56:55;;;;;;;17.63;2.60;;;;;;;12.60;80.93;98573.00;6141174;23;20013;-78
2021/05/09 02:59:28;;;;;;;6.18;2.22;;;;;;;12.58;80.53;98554.09;6166687;23;20014;-78
2021/05/09 03:01:58;;;;;;;8.25;2.60;;;;;;;12.54;80.82;98549.59;6193403;23;20000;-78
2021/05/09 03:04:44;;;;;;;11.77;2.35;;;;;;;12.61;80.62;98560.88;6175033;23;20013;-77
2021/05/09 03:07:12;;;;;;;8.82;2.30;;;;;;;12.43;80.55;98523.69;6198401;23;20007;-76
2021/05/09 03:10:00;;;;;;;6.90;2.50;;;;;;;12.56;80.81;98550.91;6199006;23;20001;-77
2021/05/09 03:12:27;;;;;;;5.82;2.47;;;;;;;12.35;80.96;98526.09;6172952;23;20485;-78
2021/05/09 03:14:53;;;;;;;9.00;1.98;;;;;;;12.48;80.90;98537.19;6204603;23;20001;-78
2021/05/09 03:17:31;;;;;;;17.77;3.30;;;;;;;12.43;81.13;98529.16;6194482;23;20035;-77
2021/05/09 03:20:19;;;;;;;4.53;1.58;;;;;;;12.55;80.55;98529.28;6158636;23;20442;-79
2021/05/09 03:22:54;;;;;;;;;;;;;;;;;;;;;
2021/05/09 03:25:20;;;;;;;5.10;1.75;;;;;;;12.58;80.77;98509.44;6188191;23;20077;-76
2021/05/09 03:27:45;;;;;;;6.53;2.25;;;;;;;12.62;80.67;98515.88;6158611;23;20001;-77
2021/05/09 03:30:17;;;;;;;11.98;2.08;;;;;;;12.57;80.72;98505.09;6162986;23;20008;-76
2021/05/09 03:32:42;;;;;;;6.53;1.63;;;;;;;12.75;80.76;98531.34;6189097;23;20019;-76
2021/05/09 03:35:10;;;;;;;4.60;1.92;;;;;;;12.69;80.54;98518.16;6156302;23;20005;-77
2021/05/09 03:37:36;;;;;;;6.97;1.77;;;;;;;12.72;80.57;98510.06;6189840;23;20009;-78
2021/05/09 03:40:03;;;;;;;8.40;1.65;;;;;;;12.71;80.36;98508.44;6188578;23;20063;-75
2021/05/09 03:42:32;;;;;;;10.10;2.13;;;;;;;12.86;80.14;98522.75;6162122;23;20278;-76
2021/05/09 03:45:07;;;;;;;;;;;;;;;;;;;;;
2021/05/09 03:47:42;;;;;;;23.52;2.33;;;;;;;12.93;80.36;98515.63;6144081;23;20081;-75
2021/05/09 03:50:11;;;;;;;4.88;1.80;;;;;;;13.00;80.20;98514.34;6159587;23;20036;-74
2021/05/09 03:52:42;;;;;;;7.60;1.67;;;;;;;13.00;79.71;98520.63;6164902;23;20009;-77
2021/05/09 03:55:10;;;;;;;6.18;1.65;;;;;;;13.02;79.96;98510.09;6169430;23;20090;-76
2021/05/09 03:57:35;;;;;;;10.45;1.92;;;;;;;13.03;79.87;98497.22;6150048;23;20024;-78
2021/05/09 04:00:04;;;;;;;12.10;2.35;;;;;;;12.99;79.50;98491.56;6198445;23;20364;-77
2021/05/09 04:02:30;;;;;;;7.95;2.13;;;;;;;13.13;79.71;98507.00;6168152;23;20371;-79
2021/05/09 04:04:57;;;;;;;8.60;1.85;;;;;;;13.08;79.30;98506.06;6189940;23;20044;-77
2021/05/09 04:07:23;;;;;;;3.40;1.17;;;;;;;13.11;79.70;98504.56;6142694;23;20011;-78
2021/05/09 04:09:59;;;;;;;6.75;1.40;;;;;;;13.15;79.65;98513.78;6157794;23;20001;-78
2021/05/09 04:13:06;;;;;;;8.95;2.50;;;;;;;13.19;80.27;98500.22;6166052;23;20056;-79
2021/05/09 04:16:01;;;;;;;;;;;;;;;;;;;;;
2021/05/09 04:19:28;;;;;;;8.13;1.27;;;;;;;13.03;80.56;98495.25;6192466;23;20025;-80
2021/05/09 04:24:42;;;;;;;;;;;;;;;12.91;81.42;98506.13;6166058;23;20005;-76
2021/05/09 04:27:07;;;;;;;7.70;2.13;;;;;;;12.76;81.95;98485.50;6180207;23;19966;-76
2021/05/09 04:29:40;;;;;;;7.93;1.92;;;;;;;12.72;82.15;98479.88;6165029;23;20020;-78
2021/05/09 04:32:18;;;;;;;;;;;;;;;;;;;;;
2021/05/09 04:34:44;;;;;;;2.60;1.35;;;;;;;12.54;83.14;98464.63;6174760;23;20043;-77
2021/05/09 04:37:09;;;;;;;10.82;1.75;;;;;;;12.57;83.24;98473.00;6167270;23;20009;-74
2021/05/09 04:39:34;;;;;;;4.80;1.25;;;;;;;12.65;83.97;98487.81;6161448;23;20013;-75
2021/05/09 04:42:00;;;;;;;5.47;2.05;;;;;;;12.56;83.97;98479.63;6134975;23;20439;-75
2021/05/09 04:44:25;;;;;;;6.72;1.55;;;;;;;12.58;84.32;98466.38;6135716;23;20020;-76
2021/05/09 04:46:54;;;;;;;14.90;3.13;;;;;;;12.61;84.15;98478.63;6160963;23;20721;-74
2021/05/09 04:49:21;;;;;;;9.45;2.17;;;;;;;12.57;84.87;98483.16;6136405;23;20424;-75
2021/05/09 04:51:54;;;;;;;7.65;2.30;;;;;;;12.50;84.94;98491.06;6162467;23;20001;-79
2021/05/09 04:54:21;;;;;;;4.88;1.77;;;;;;;12.47;85.69;98469.78;6137545;23;20013;-76
2021/05/09 04:56:56;;;;;;;7.43;1.65;;;;;;;12.45;86.13;98470.13;6187296;23;20005;-77
2021/05/09 04:59:31;;;;;;;;;;;;;;;;;;;;;
2021/05/09 05:01:57;;;;;;;17.08;2.70;;;;;;;12.38;86.23;98465.16;6159151;23;20076;-74
2021/05/09 05:04:25;;;;;;;3.92;1.85;;;;;;;12.52;86.63;98494.31;6159054;23;20012;-75
2021/05/09 05:07:03;;;;;;;;;;;;;;;;;;;;;
2021/05/09 05:09:29;;;;;;;5.93;2.20;;;;;;;12.49;86.44;98473.03;6182961;23;20084;-76
2021/05/09 05:11:56;;;;;;;5.55;2.08;;;;;;;12.62;86.60;98488.47;6187701;23;20005;-75
2021/05/09 05:14:24;;;;;;;8.77;1.70;;;;;;;12.67;86.45;98496.50;6187402;23;20050;-76
2021/05/09 05:16:49;;;;;;;7.28;2.40;;;;;;;12.66;85.96;98497.66;6164515;23;20019;-75
2021/05/09 05:19:24;;;;;;;9.48;2.75;;;;;;;12.71;86.51;98497.47;6140421;23;20447;-76
2021/05/09 05:21:50;;;;;;;4.65;2.13;;;;;;;12.65;85.96;98493.28;6188687;23;20028;-75
2021/05/09 05:24:17;;;;;;;14.10;2.95;;;;;;;12.65;86.19;98512.50;6159296;23;20376;-75
2021/05/09 05:26:45;;;;;;;7.00;1.77;;;;;;;12.61;86.19;98488.81;6136601;23;20036;-75
2021/05/09 05:29:12;;;;;;;9.48;2.00;;;;;;;12.57;86.22;98477.66;6165553;23;20416;-77
2021/05/09 05:31:40;;;;;;;13.55;2.10;;;;;;;12.75;86.00;98498.44;6133883;23;20017;-76
2021/05/09 05:34:12;;;;;;;6.57;1.77;;;;;;;12.72;86.36;98488.13;6141534;23;20008;-75
2021/05/09 05:36:40;;;;;;;6.32;1.77;;;;;;;12.83;85.80;98487.75;6120812;23;20031;-75
2021/05/09 05:39:06;;;;;;;10.77;2.45;;;;;;;12.85;85.63;98486.31;6161775;23;20016;-75
2021/05/09 05:41:32;;;;;;;11.43;2.17;;;;;;;12.89;85.46;98494.66;6165787;23;20037;-77
2021/05/09 05:43:58;;;;;;;12.75;2.60;;;;;;;12.93;85.17;98487.41;6189296;23;20013;-76
2021/05/09 05:46:26;;;;;;;6.35;2.25;;;;;;;13.00;85.12;98484.94;6192435;23;20435;-76
2021/05/09 05:48:52;;;;;;;14.10;2.03;;;;;;;13.08;85.33;98489.59;6189503;23;20010;-78
2021/05/09 05:51:18;;;;;;;8.95;2.53;;;;;;;13.06;84.48;98493.81;6138170;23;20018;-77
2021/05/09 05:53:43;;;;;;;5.07;1.75;;;;;;;13.16;84.13;98506.34;6114631;23;20005;-77
2021/05/09 05:56:12;;;;;;;5.90;1.80;;;;;;;13.20;84.54;98501.78;6161116;23;20336;-77
2021/05/09 05:58:40;;;;;;;10.65;2.08;;;;;;;13.15;84.54;98510.22;6188992;23;20088;-76
2021/05/09 06:01:15;;;;;;;7.63;1.75;;;;;;;13.08;84.39;98495.09;6153846;23;20013;-76
2021/05/09 06:03:41;;;;;;;12.07;2.38;;;;;;;13.18;84.05;98520.53;6158848;23;20005;-76
2021/05/09 06:06:06;;;;;;;7.15;1.58;;;;;;;13.06;84.19;98510.25;6162829;23;20011;-76
2021/05/09 06:08:31;;;;;;;7.88;1.77;;;;;;;13.16;84.15;98517.34;6161774;23;20413;-76
2021/05/09 06:10:57;;;;;;;4.68;1.52;;;;;;;13.07;84.31;98489.94;6133474;23;20461;-77
2021/05/09 06:13:32;;;;;;;6.45;1.42;;;;;;;12.93;83.70;98488.19;6137493;23;20036;-76
2021/05/09 06:16:05;;;;;;;8.00;1.77;;;;;;;12.97;84.62;98496.59;6183095;23;20069;-76
2021/05/09 06:18:31;;;;;;;6.63;1.48;;;;;;;12.94;83.83;98500.00;6157286;23;20328;-75
2021/05/09 06:20:56;;;;;;;6.55;2.03;;;;;;;12.99;84.21;98519.00;6187685;23;20033;-77
2021/05/09 06:23:24;;;;;;;5.68;1.45;;;;;;;12.97;84.51;98501.28;6162017;23;20009;-76
2021/05/09 06:25:51;;;;;;;12.13;1.70;;;;;;;13.00;84.16;98506.91;6185629;23;20100;-76
2021/05/09 06:28:16;;;;;;;2.72;1.17;;;;;;;13.04;84.12;98513.34;6161685;23;20017;-76
2021/05/09 06:30:49;;;;;;;6.93;1.38;;;;;;;13.01;84.73;98511.25;6185982;23;20013;-75
2021/05/09 06:33:17;;;;;;;2.22;1.38;;;;;;;13.01;84.57;98502.19;6137392;23;20279;-75
2021/05/09 06:35:53;;;;;;;;;;;;;;;;;;;;;
2021/05/09 06:38:20;;;;;;;2.40;1.40;;;;;;;13.06;84.79;98524.00;6192605;23;20035;-76
2021/05/09 06:41:00;;;;;;;2.10;1.15;;;;;;;13.12;84.39;98533.63;6192529;23;20048;-79
2021/05/09 06:43:36;;;;;;;7.15;0.73;;;;;;;12.91;84.43;98511.63;6168770;23;20378;-79
2021/05/09 06:46:17;;;;;;;;;;;;;;;;;;;;;
2021/05/09 06:48:55;;;;;;;0.90;0.65;;;;;;;13.18;85.15;98531.53;6178753;23;20009;-78
2021/05/09 06:51:24;;;;;;;3.17;0.82;;;;;;;13.25;84.54;98540.03;6175045;23;20008;-77
2021/05/09 06:53:52;;;;;;;0.90;0.52;;;;;;;13.07;85.01;98515.41;6176701;23;20013;-77
2021/05/09 06:56:17;;;;;;;3.28;0.75;;;;;;;13.10;84.47;98531.22;6193462;23;20004;-79
2021/05/09 06:59:03;;;;;;;1.38;1.27;;;;;;;13.29;84.76;98549.25;6191139;23;20439;-79
2021/05/09 07:01:30;;;;;;;2.00;0.90;;;;;;;13.21;85.00;98547.31;6164666;23;20001;-75
2021/05/09 07:03:55;;;;;;;1.30;0.82;;;;;;;13.28;85.13;98548.41;6163485;23;19999;-75
2021/05/09 07:06:29;;;;;;;2.28;1.13;;;;;;;13.25;84.81;98532.59;6161681;23;20036;-76
2021/05/09 07:08:57;;;;;;;2.40;1.35;;;;;;;13.30;85.12;98531.63;6140868;23;20005;-76
2021/05/09 07:11:23;;;;;;;2.30;0.90;;;;;;;13.39;85.03;98542.59;6187201;23;19993;-78
2021/05/09 07:14:06;;;;;;;1.50;1.30;;;;;;;13.46;85.14;98542.06;6163551;23;20036;-77
2021/05/09 07:16:32;;;;;;;0.98;0.75;;;;;;;13.47;85.12;98549.97;6134828;23;20020;-79
2021/05/09 07:19:00;;;;;;;1.45;1.33;;;;;;;13.56;84.21;98555.44;6162763;23;20016;-78
2021/05/09 07:21:44;;;;;;;2.13;0.80;;;;;;;13.49;84.46;98534.00;6165514;23;20065;-78
2021/05/09 07:24:13;;;;;;;6.00;1.00;;;;;;;13.52;84.94;98540.75;6135384;23;20004;-78
2021/05/09 07:26:51;;;;;;;;;;;;;;;;;;;;;
2021/05/09 07:32:57;;;;;;;1.48;0.55;;;;;;;13.53;84.05;98536.88;6171301;23;20040;-78
2021/05/09 07:35:25;;;;;;;0.90;0.88;;;;;;;13.67;84.15;98550.34;6135214;23;20014;-77
2021/05/09 07:38:10;;;;;;;;;;;;;;;;;;;;;
2021/05/09 07:40:45;;;;;;;0.55;0.50;;;;;;;13.82;83.13;98547.03;6163702;23;20025;-78
2021/05/09 07:43:18;;;;;;;1.95;0.57;;;;;;;13.83;83.41;98540.41;6132892;23;20033;-79
2021/05/09 07:45:44;;;;;;;0.52;0.40;;;;;;;13.72;82.28;98529.00;6160850;23;20432;-78
2021/05/09 07:48:11;;;;;;;2.20;0.50;;;;;;;13.91;82.83;98541.47;6136153;23;20006;-82
2021/05/09 07:50:50;;;;;;;1.10;0.47;;;;;;;13.85;81.87;98520.84;6135788;23;20071;-81
2021/05/09 07:53:25;;;;;;;1.65;0.40;;;;;;;13.90;81.89;98513.22;6162225;23;20009;-80
2021/05/09 07:56:00;;;;;;;1.25;0.75;;;;;;;14.14;82.06;98529.00;6110767;23;20009;-78
2021/05/09 07:58:36;;;;;;;0.80;0.30;;;;;;;14.26;80.37;98519.22;6133339;23;20009;-80
2021/05/09 08:01:03;;;;;;;5.43;0.85;;;;;;;14.28;79.71;98505.91;6133996;23;20452;-77
2021/05/09 08:03:57;;;;;;;;;;;;;;;;;;;;;
2021/05/09 08:06:22;;;;;;;0.93;0.40;;;;;;;14.30;78.17;98522.91;6162831;23;20032;-78
2021/05/09 08:09:49;;;;;;;;;;;;;;;;;;;;;
2021/05/09 08:11:46;;;;;;;1.27;0.52;;;;;;;14.40;78.02;98527.19;6136869;23;20016;-79
2021/05/09 08:14:21;;;;;;;0.65;0.30;;;;;;;14.51;77.79;98513.81;6117354;23;20017;-77
2021/05/09 08:16:46;;;;;;;1.37;0.30;;;;;;;14.73;77.37;98520.88;6164511;23;20085;-78
2021/05/09 08:19:20;;;;;;;1.45;0.40;;;;;;;14.69;76.24;98508.94;6131870;23;20231;-77
2021/05/09 08:21:47;;;;;;;1.02;0.40;;;;;;;14.77;75.80;98516.31;6131285;23;20009;-78
2021/05/09 08:24:26;;;;;;;1.73;0.47;;;;;;;14.81;75.03;98528.25;6160179;23;20001;-80
2021/05/09 08:27:00;;;;;;;0.52;0.32;;;;;;;14.83;73.92;98546.03;6129935;23;20064;-76
2021/05/09 08:29:35;;;;;;;0.65;0.30;;;;;;;14.88;73.47;98533.19;6136569;23;20032;-77
2021/05/09 08:32:01;;;;;;;1.60;0.35;;;;;;;14.87;72.50;98510.38;6127851;23;20075;-79
2021/05/09 08:34:29;;;;;;;1.35;0.20;;;;;;;14.95;71.56;98525.16;6192357;23;20319;-83
2021/05/09 08:37:01;;;;;;;0.35;0.13;;;;;;;14.96;71.30;98529.53;6159539;23;20096;-81
2021/05/09 08:39:33;;;;;;;0.32;0.20;;;;;;;15.14;71.55;98541.97;6165586;23;20005;-80
2021/05/09 08:42:08;;;;;;;1.58;0.25;;;;;;;15.22;71.03;98528.44;6190905;23;19997;-81
2021/05/09 08:44:34;;;;;;;0.82;0.47;;;;;;;15.42;69.99;98552.31;6161751;23;20704;-80
2021/05/09 08:47:17;;;;;;;;;;;;;;;;;;;;;
2021/05/09 08:49:51;;;;;;;1.88;0.32;;;;;;;15.08;70.02;98521.28;6192740;23;20027;-79
2021/05/09 08:52:53;;;;;;;1.73;0.50;;;;;;;15.10;71.17;98545.72;6190098;23;20013;-84
2021/05/09 08:55:27;;;;;;;1.95;0.50;;;;;;;14.94;71.64;98531.84;6168878;23;20088;-82
2021/05/09 08:57:56;;;;;;;4.47;0.50;;;;;;;15.11;71.66;98536.31;6165116;23;20005;-80
2021/05/09 09:00:25;;;;;;;2.28;0.93;;;;;;;15.23;71.73;98521.75;6192465;23;20101;-81
2021/05/09 09:02:54;;;;;;;1.58;0.30;;;;;;;15.39;70.22;98532.91;6166662;23;20005;-81
2021/05/09 09:05:46;;;;;;;;;;;;;;;;;;;;;
2021/05/09 09:12:20;;;;;;;1.20;0.50;;;;;;;15.65;70.09;98516.00;6098023;23;20137;-81
2021/05/09 09:14:52;;;;;;;0.55;0.40;;;;;;;15.88;68.98;98511.63;6165902;23;20072;-85
2021/05/09 09:17:21;;;;;;;1.67;0.38;;;;;;;15.83;68.21;98495.34;6171900;23;20015;-84
2021/05/09 09:25:53;;;;;;;5.55;0.30;;;;;;;16.09;66.74;98524.47;6169283;23;20012;-81
2021/05/09 09:29:01;;;;;;;4.38;0.63;;;;;;;16.36;66.46;98533.09;6136565;23;20032;-81
2021/05/09 09:32:08;;;;;;;1.10;0.40;;;;;;;16.41;64.89;98541.09;6098233;23;20073;-81
2021/05/09 09:37:42;;;;;;;;;;;;;;;;;;;;;
2021/05/09 09:40:27;;;;;;;0.25;0.13;;;;;;;16.83;63.78;98517.81;6049088;23;20007;-79
2021/05/09 09:43:03;;;;;;;;;;;;;;;;;;;;;
2021/05/09 09:45:44;;;;;;;1.48;0.30;;;;;;;16.87;64.46;98529.75;6042391;23;20027;-80
2021/05/09 09:56:01;;;;;;;1.20;0.70;;;;;;;17.06;64.21;98549.19;5994033;23;20357;-80
2021/05/09 09:59:07;;;;;;;15.48;10.70;;;;;;;16.76;64.54;98504.59;6014241;23;20034;-79
2021/05/09 10:01:33;;;;;;;13.73;8.18;;;;;;;16.55;64.98;98497.38;6068033;23;20041;-81
2021/05/09 10:07:46;;;;;;;1.20;1.10;;;;;;;16.31;66.43;98486.44;5928758;24;20341;-82
2021/05/09 10:10:18;;;;;;;1.13;1.13;;;;;;;16.44;66.55;98485.25;6019777;23;20002;-80
2021/05/09 10:17:00;;;;;;;;;;;;;;;;;;;;;
2021/05/09 10:19:28;;;;;;;0.85;0.85;;;;;;;16.33;67.92;98509.78;6034870;23;20360;-76
2021/05/09 10:21:53;;;;;;;0.80;0.80;;;;;;;16.42;67.20;98517.09;6036228;23;20070;-75
2021/05/09 10:24:38;;;;;;;2.92;2.72;;;;;;;16.27;66.93;98529.69;6091326;23;20018;-78
2021/05/09 10:27:41;;;;;;;1.65;1.50;;;;;;;15.90;66.33;98482.94;6071777;23;20122;-79
2021/05/09 10:30:12;;;;;;;2.63;2.03;;;;;;;15.92;66.42;98511.75;6056266;23;20009;-77
2021/05/09 10:32:37;;;;;;;4.43;1.20;;;;;;;15.77;66.62;98504.97;6072516;23;20359;-78
2021/05/09 10:35:06;;;;;;;4.70;1.25;;;;;;;15.58;67.69;98502.84;6070844;23;20074;-77
2021/05/09 10:37:48;;;;;;;;;;;;;;;;;;;;;
2021/05/09 10:40:53;;;;;;;2.03;1.00;;;;;;;16.11;68.35;98491.81;6158100;23;20032;-78
2021/05/09 10:44:12;;;;;;;;;;;;;;;;;;;;;
2021/05/09 10:47:05;;;;;;;18.92;13.10;;;;;;;18.09;63.50;98505.03;6171248;23;20036;-77
2021/05/09 10:49:59;;;;;;;1.38;1.27;;;;;;;18.37;60.78;98503.19;6187659;23;20088;-77
2021/05/09 10:53:06;;;;;;;1.77;0.80;;;;;;;18.73;59.95;98504.66;6159652;23;20332;-76
2021/05/09 10:55:47;;;;;;;3.10;0.95;;;;;;;18.82;58.49;98473.97;6072161;23;20007;-79
2021/05/09 10:58:17;;;;;;;0.60;0.60;;;;;;;18.64;59.03;98485.53;6052537;23;20010;-77
2021/05/09 11:00:58;;;;;;;1.00;0.80;;;;;;;18.56;58.72;98505.97;6159512;23;20023;-80
2021/05/09 11:03:44;;;;;;;1.08;0.60;;;;;;;18.55;59.40;98504.34;6165314;23;20005;-80
2021/05/09 11:06:43;;;;;;;;;;;;;;;;;;;;;
2021/05/09 11:09:42;;;;;;;;;;;;;;;;;;;;;
2021/05/09 11:12:20;;;;;;;;;;;;;;;;;;;;;
2021/05/09 11:15:20;;;;;;;;;;;;;;;;;;;;;
2021/05/09 11:18:25;;;;;;;0.63;0.30;;;;;;;16.82;64.04;98478.38;6185295;23;20029;-81
2021/05/09 11:20:54;;;;;;;0.85;0.60;;;;;;;16.73;65.05;98494.28;6164979;23;20013;-82
2021/05/09 11:23:22;;;;;;;0.50;0.43;;;;;;;16.71;65.11;98496.59;6195661;23;20008;-80
2021/05/09 11:26:23;;;;;;;3.97;0.30;;;;;;;16.78;65.28;98499.56;6147023;23;20005;-80
2021/05/09 11:29:08;;;;;;;0.20;0.20;;;;;;;16.70;65.91;98500.50;6166661;23;20004;-80
2021/05/09 11:31:50;;;;;;;3.05;0.22;;;;;;;16.65;65.90;98489.75;6168511;23;20044;-80
2021/05/09 11:34:20;;;;;;;1.80;0.63;;;;;;;16.62;66.18;98479.38;6164472;23;20016;-78
2021/05/09 11:36:48;;;;;;;0.65;0.55;;;;;;;16.79;66.16;98481.03;6186408;23;20009;-80
2021/05/09 11:39:44;;;;;;;1.55;0.38;;;;;;;17.05;65.45;98488.81;6189092;23;20080;-79
2021/05/09 11:42:17;;;;;;;3.80;0.47;;;;;;;17.38;63.96;98488.44;6187211;23;20040;-79
2021/05/09 11:44:53;;;;;;;2.05;0.50;;;;;;;17.57;63.26;98495.97;6193079;23;20001;-80
2021/05/09 11:47:35;;;;;;;0.70;0.45;;;;;;;17.66;61.85;98487.47;6167861;23;20151;-79
2021/05/09 11:50:16;;;;;;;;;;;;;;;;;;;;;
2021/05/09 11:52:43;;;;;;;1.15;1.05;;;;;;;17.35;63.29;98466.25;6196827;23;20001;-80
2021/05/09 11:55:27;;;;;;;;;;;;;;;;;;;;;
2021/05/09 11:58:02;;;;;;;1.05;0.30;;;;;;;17.54;61.87;98485.63;6202766;23;20001;-80
2021/05/09 12:00:27;;;;;;;2.22;0.93;;;;;;;17.43;62.92;98476.28;6201124;23;20052;-78
2021/05/09 12:03:10;;;;;;;1.08;0.30;;;;;;;17.38;63.36;98477.38;6173205;23;20074;-80
2021/05/09 12:05:46;;;;;;;;;;;;;;;;;;;;;
2021/05/09 12:08:31;;;;;;;2.55;0.60;;;;;;;17.54;62.90;98476.56;6194211;23;20021;-79
2021/05/09 12:11:04;;;;;;;2.35;0.70;;;;;;;17.64;62.27;98500.88;6168102;23;20387;-80
2021/05/09 12:13:30;;;;;;;1.98;0.73;;;;;;;17.63;62.82;98491.75;6186294;23;19997;-79
2021/05/09 12:15:55;;;;;;;0.60;0.40;;;;;;;17.60;62.31;98478.66;6191314;23;20009;-80
2021/05/09 12:18:28;;;;;;;6.18;0.80;;;;;;;17.64;61.91;98453.88;6136775;23;20092;-79
2021/05/09 12:21:27;;;;;;;1.58;0.40;;;;;;;17.92;61.67;98478.59;6164130;23;20020;-79
2021/05/09 12:24:02;;;;;;;3.45;0.55;;;;;;;18.16;62.07;98460.09;6164247;23;20001;-79
2021/05/09 12:26:35;;;;;;;0.95;0.73;;;;;;;18.35;60.12;98477.88;6191966;23;20015;-79
2021/05/09 12:29:17;;;;;;;0.98;0.40;;;;;;;18.33;59.77;98474.69;6166557;23;20016;-80
2021/05/09 12:31:44;;;;;;;1.63;0.40;;;;;;;18.10;60.00;98480.94;6139514;23;20075;-80
2021/05/09 12:34:12;;;;;;;0.85;0.50;;;;;;;17.88;59.99;98485.97;6190295;23;20385;-81
2021/05/09 12:36:41;;;;;;;1.13;0.63;;;;;;;17.50;61.05;98468.16;6204859;23;20020;-79
2021/05/09 12:39:19;;;;;;;1.67;0.50;;;;;;;17.46;61.97;98467.28;6211729;23;20000;-79
2021/05/09 12:41:53;;;;;;;1.02;0.38;;;;;;;17.51;62.22;98464.25;6183866;23;20001;-79
2021/05/09 12:44:23;;;;;;;1.38;0.35;;;;;;;17.79;62.13;98474.34;6180574;23;19997;-79
2021/05/09 12:46:49;;;;;;;5.00;0.40;;;;;;;17.74;61.21;98469.91;6179288;23;20012;-78
2021/05/09 12:49:23;;;;;;;0.50;0.30;;;;;;;17.73;61.10;98481.31;6175520;23;20001;-81
2021/05/09 12:52:05;;;;;;;3.88;0.80;;;;;;;17.49;60.97;98487.88;6164042;23;20055;-79
2021/05/09 12:54:51;;;;;;;1.15;0.55;;;;;;;17.26;61.72;98497.63;6190688;23;19996;-78
2021/05/09 12:57:17;;;;;;;0.95;0.40;;;;;;;16.99;62.28;98487.47;6163294;23;20023;-78
2021/05/09 13:00:03;;;;;;;1.38;0.50;;;;;;;17.03;63.33;98499.41;6165148;23;20009;-78
2021/05/09 13:02:32;;;;;;;0.98;0.45;;;;;;;17.09;63.14;98486.94;6193200;23;20411;-79
2021/05/09 13:05:16;;;;;;;0.70;0.55;;;;;;;17.23;63.15;98495.59;6144239;23;20064;-79
2021/05/09 13:07:45;;;;;;;1.50;0.88;;;;;;;17.24;63.45;98477.84;6170456;23;20001;-78
2021/05/09 13:10:11;;;;;;;4.30;0.88;;;;;;;17.48;62.11;98489.84;6170176;23;20084;-79
2021/05/09 13:12:36;;;;;;;0.82;0.40;;;;;;;17.48;61.96;98478.78;6167720;23;20009;-78
2021/05/09 13:15:07;;;;;;;5.00;0.50;;;;;;;17.53;62.21;98491.53;6169650;23;20005;-77
2021/05/09 13:17:33;;;;;;;0.57;0.40;;;;;;;17.57;61.36;98495.97;6170090;23;20576;-79
2021/05/09 13:19:58;;;;;;;0.73;0.40;;;;;;;17.88;61.07;98474.13;6169603;23;20073;-77
2021/05/09 13:22:24;;;;;;;2.13;0.68;;;;;;;18.17;60.69;98481.06;6144017;23;20088;-78
2021/05/09 13:24:49;;;;;;;1.70;0.52;;;;;;;18.22;59.46;98477.22;6192173;23;20460;-79